createdAt,value
2023-06-10T00:00:45.678Z,91.40
2023-06-10T00:03:13.702Z,91.60
2023-06-10T00:05:40.682Z,91.70
2023-06-10T00:08:08.554Z,91.80
2023-06-10T00:10:39.643Z,91.80
2023-06-10T00:13:09.979Z,91.80
2023-06-10T00:15:37.001Z,92.00
2023-06-10T00:18:04.877Z,92.10
2023-06-10T00:20:32.215Z,92.20
2023-06-10T00:23:02.419Z,92.20
2023-06-10T00:25:29.367Z,92.30
2023-06-10T00:27:56.681Z,92.40
2023-06-10T00:30:23.759Z,92.40
2023-06-10T00:32:50.814Z,92.50
2023-06-10T00:35:17.821Z,92.60
2023-06-10T00:37:44.763Z,92.60
2023-06-10T00:40:12.246Z,92.80
2023-06-10T00:42:39.223Z,92.80
2023-06-10T00:45:07.865Z,92.90
2023-06-10T00:47:37.466Z,93.00
2023-06-10T00:50:05.592Z,93.10
2023-06-10T00:52:32.776Z,93.30
2023-06-10T00:55:00.555Z,93.50
2023-06-10T00:57:27.875Z,93.60
2023-06-10T00:59:55.836Z,93.90
2023-06-10T01:02:22.800Z,94.00
2023-06-10T01:04:50.324Z,94.10
2023-06-10T01:07:38.416Z,94.20
2023-06-10T01:10:39.031Z,94.30
2023-06-10T01:13:12.961Z,94.30
2023-06-10T01:15:40.404Z,94.40
2023-06-10T01:18:15.986Z,94.50
2023-06-10T01:20:45.177Z,94.60
2023-06-10T01:23:12.474Z,94.70
2023-06-10T01:25:59.226Z,94.80
2023-06-10T01:28:39.502Z,94.90
2023-06-10T01:31:37.598Z,95.00
2023-06-10T01:34:11.103Z,95.40
2023-06-10T01:36:39.440Z,95.20
2023-06-10T01:39:09.856Z,95.30
2023-06-10T01:41:37.431Z,95.40
2023-06-10T01:44:05.993Z,95.50
2023-06-10T01:46:32.998Z,95.50
2023-06-10T01:48:59.977Z,95.50
2023-06-10T01:51:26.811Z,95.50
2023-06-10T01:53:53.715Z,95.70
2023-06-10T01:56:21.687Z,95.70
2023-06-10T01:58:48.607Z,95.90
2023-06-10T02:01:15.863Z,96.00
2023-06-10T02:03:42.821Z,96.30
2023-06-10T02:06:09.774Z,96.60
2023-06-10T02:08:36.656Z,96.60
2023-06-10T02:11:03.634Z,96.70
2023-06-10T02:13:30.698Z,96.70
2023-06-10T02:15:58.007Z,96.60
2023-06-10T02:18:29.658Z,96.40
2023-06-10T02:20:56.518Z,96.40
2023-06-10T02:23:23.589Z,96.40
2023-06-10T02:25:50.721Z,96.40
2023-06-10T02:28:18.591Z,96.60
2023-06-10T02:30:47.841Z,96.60
2023-06-10T02:33:15.228Z,96.70
2023-06-10T02:35:42.848Z,96.80
2023-06-10T02:38:09.727Z,96.90
2023-06-10T02:40:36.710Z,97.00
2023-06-10T02:43:03.625Z,97.00
2023-06-10T02:45:31.456Z,97.10
2023-06-10T02:47:59.772Z,97.10
2023-06-10T02:50:27.054Z,97.10
2023-06-10T02:53:02.317Z,97.10
2023-06-10T02:55:30.410Z,97.10
2023-06-10T02:58:01.638Z,97.30
2023-06-10T03:00:29.686Z,97.70
2023-06-10T03:02:58.706Z,97.70
2023-06-10T03:05:31.187Z,97.90
2023-06-10T03:08:00.874Z,97.60
2023-06-10T03:10:28.922Z,97.80
2023-06-10T03:12:55.931Z,97.90
2023-06-10T03:15:25.577Z,98.10
2023-06-10T03:17:53.139Z,98.20
2023-06-10T03:20:20.278Z,98.40
2023-06-10T03:22:47.496Z,98.30
2023-06-10T03:25:17.164Z,98.30
2023-06-10T03:27:48.675Z,98.30
2023-06-10T03:30:16.122Z,98.40
2023-06-10T03:32:45.474Z,98.70
2023-06-10T03:35:15.868Z,98.80
2023-06-10T03:37:42.727Z,99.10
2023-06-10T03:40:09.960Z,99.00
2023-06-10T03:42:38.896Z,99.10
2023-06-10T03:45:07.006Z,99.10
2023-06-10T03:47:37.054Z,99.40
2023-06-10T03:50:07.901Z,99.50
2023-06-10T03:52:36.292Z,99.50
2023-06-10T03:55:04.792Z,99.40
2023-06-10T03:57:32.012Z,99.60
2023-06-10T03:59:59.605Z,99.70
2023-06-10T04:02:26.678Z,99.60
2023-06-10T04:04:54.172Z,99.60
2023-06-10T04:07:21.531Z,99.50
2023-06-10T04:09:48.628Z,99.60
2023-06-10T04:12:15.654Z,99.60
2023-06-10T04:14:42.574Z,99.80
2023-06-10T04:17:12.009Z,99.90
2023-06-10T04:19:39.419Z,99.80
2023-06-10T04:22:07.437Z,99.60
2023-06-10T04:24:34.427Z,99.60
2023-06-10T04:27:01.837Z,99.60
2023-06-10T04:29:29.195Z,99.70
2023-06-10T04:31:56.192Z,99.70
2023-06-10T04:34:23.464Z,99.80
2023-06-10T04:36:52.137Z,99.70
2023-06-10T04:39:19.545Z,99.60
2023-06-10T04:41:49.913Z,99.80
2023-06-10T04:44:16.926Z,99.70
2023-06-10T04:46:43.905Z,99.70
2023-06-10T04:49:10.865Z,99.70
2023-06-10T04:51:38.916Z,99.80
2023-06-10T04:54:06.617Z,99.70
2023-06-10T04:56:33.917Z,99.50
2023-06-10T04:59:01.345Z,99.40
2023-06-10T05:01:28.909Z,99.10
2023-06-10T05:03:55.848Z,99.00
2023-06-10T05:06:22.828Z,99.00
2023-06-10T05:08:49.661Z,98.80
2023-06-10T05:11:16.482Z,98.80
2023-06-10T05:13:43.950Z,98.60
2023-06-10T05:16:10.934Z,98.60
2023-06-10T05:18:38.092Z,98.60
2023-06-10T05:21:04.965Z,98.60
2023-06-10T05:23:32.134Z,98.60
2023-06-10T05:25:59.360Z,98.50
2023-06-10T05:28:26.837Z,98.40
2023-06-10T05:30:53.695Z,98.60
2023-06-10T05:33:20.616Z,98.60
2023-06-10T05:35:47.498Z,98.60
2023-06-10T05:38:14.485Z,98.60
2023-06-10T05:40:41.394Z,98.40
2023-06-10T05:43:08.588Z,98.40
2023-06-10T05:45:35.488Z,98.30
2023-06-10T05:48:02.353Z,98.20
2023-06-10T05:50:29.305Z,98.10
2023-06-10T05:52:56.162Z,98.00
2023-06-10T05:55:23.077Z,98.00
2023-06-10T05:58:00.911Z,98.00
2023-06-10T06:00:28.152Z,98.00
2023-06-10T06:02:55.748Z,97.90
2023-06-10T06:05:22.772Z,98.00
2023-06-10T06:07:49.758Z,97.80
2023-06-10T06:10:18.567Z,97.80
2023-06-10T06:12:45.940Z,97.80
2023-06-10T06:15:13.176Z,97.80
2023-06-10T06:17:40.067Z,97.80
2023-06-10T06:20:07.691Z,97.90
2023-06-10T06:22:34.849Z,97.80
2023-06-10T06:25:01.775Z,97.80
2023-06-10T06:27:29.151Z,97.70
2023-06-10T06:29:56.065Z,97.70
2023-06-10T06:32:23.965Z,97.70
2023-06-10T06:34:55.105Z,97.70
2023-06-10T06:37:25.953Z,97.70
2023-06-10T06:40:04.602Z,97.60
2023-06-10T06:42:31.736Z,97.70
2023-06-10T06:45:03.971Z,97.70
2023-06-10T06:47:30.862Z,97.60
2023-06-10T06:49:57.813Z,97.50
2023-06-10T06:52:24.653Z,97.40
2023-06-10T06:54:51.554Z,97.50
2023-06-10T06:57:18.410Z,97.40
2023-06-10T06:59:45.289Z,97.30
2023-06-10T07:02:12.172Z,97.30
2023-06-10T07:04:39.244Z,97.40
2023-06-10T07:07:08.188Z,97.20
2023-06-10T07:09:35.016Z,97.30
2023-06-10T07:12:01.868Z,96.90
2023-06-10T07:14:28.745Z,97.20
2023-06-10T07:16:55.622Z,97.00
2023-06-10T07:19:22.576Z,96.80
2023-06-10T07:21:49.414Z,96.70
2023-06-10T07:24:16.484Z,96.60
2023-06-10T07:26:43.465Z,96.60
2023-06-10T07:29:10.297Z,96.60
2023-06-10T07:31:37.207Z,96.80
2023-06-10T07:34:04.171Z,96.60
2023-06-10T07:36:31.050Z,96.60
2023-06-10T07:38:57.877Z,96.50
2023-06-10T07:41:26.323Z,96.40
2023-06-10T07:43:57.476Z,96.30
2023-06-10T07:46:25.692Z,96.00
2023-06-10T07:48:52.702Z,96.00
2023-06-10T07:51:19.620Z,95.90
2023-06-10T07:53:46.543Z,95.90
2023-06-10T07:56:13.468Z,95.90
2023-06-10T07:58:40.454Z,95.90
2023-06-10T08:01:07.754Z,95.40
2023-06-10T08:03:34.696Z,95.70
2023-06-10T08:06:02.117Z,95.80
2023-06-10T08:08:29.026Z,95.90
2023-06-10T08:10:55.947Z,95.80
2023-06-10T08:13:22.920Z,95.80
2023-06-10T08:15:51.686Z,95.90
2023-06-10T08:18:18.899Z,96.00
2023-06-10T08:20:45.800Z,96.00
2023-06-10T08:23:12.737Z,95.90
2023-06-10T08:25:39.603Z,95.40
2023-06-10T08:28:06.473Z,95.20
2023-06-10T08:30:33.381Z,95.40
2023-06-10T08:33:01.111Z,95.20
2023-06-10T08:35:28.205Z,95.40
2023-06-10T08:37:55.091Z,95.40
2023-06-10T08:40:23.064Z,95.40
2023-06-10T08:42:58.898Z,95.20
2023-06-10T08:45:28.167Z,95.10
2023-06-10T08:47:58.180Z,94.90
2023-06-10T08:50:25.781Z,95.40
2023-06-10T08:52:57.846Z,95.20
2023-06-10T08:55:32.320Z,95.10
2023-06-10T08:58:01.803Z,95.30
2023-06-10T09:00:30.398Z,95.10
2023-06-10T09:03:00.878Z,94.90
2023-06-10T09:05:31.127Z,94.60
2023-06-10T09:07:58.805Z,94.50
2023-06-10T09:10:26.802Z,93.90
2023-06-10T09:12:53.795Z,94.20
2023-06-10T09:15:21.224Z,94.20
2023-06-10T09:17:48.346Z,94.00
2023-06-10T09:20:15.707Z,94.40
2023-06-10T09:22:44.302Z,94.20
2023-06-10T09:25:13.127Z,93.90
2023-06-10T09:27:51.720Z,93.80
2023-06-10T09:30:33.139Z,93.80
2023-06-10T09:33:02.363Z,93.60
2023-06-10T09:35:31.130Z,93.60
2023-06-10T09:37:59.905Z,93.40
2023-06-10T09:40:28.902Z,93.60
2023-06-10T09:43:05.121Z,93.60
2023-06-10T09:45:33.523Z,93.40
2023-06-10T09:48:00.707Z,93.90
2023-06-10T09:50:27.624Z,94.10
2023-06-10T09:52:54.903Z,93.60
2023-06-10T09:55:21.767Z,93.40
2023-06-10T09:57:52.636Z,93.40
2023-06-10T10:00:20.043Z,93.50
2023-06-10T10:02:50.865Z,93.50
2023-06-10T10:05:19.301Z,93.60
2023-06-10T10:07:46.906Z,93.80
2023-06-10T10:10:16.216Z,93.90
2023-06-10T10:12:43.706Z,93.30
2023-06-10T10:15:12.518Z,93.00
2023-06-10T10:17:45.933Z,93.10
2023-06-10T10:20:15.530Z,92.60
2023-06-10T10:22:44.745Z,93.30
2023-06-10T10:25:14.856Z,93.10
2023-06-10T10:28:09.049Z,92.80
2023-06-10T10:30:43.650Z,92.20
2023-06-10T10:33:52.224Z,92.10
2023-06-10T10:36:20.349Z,91.70
2023-06-10T10:38:51.797Z,92.00
2023-06-10T10:41:21.869Z,91.80
2023-06-10T10:43:50.747Z,91.90
2023-06-10T10:46:18.443Z,91.40
2023-06-10T10:48:46.292Z,91.30
2023-06-10T10:51:13.216Z,91.00
2023-06-10T10:53:40.870Z,91.30
2023-06-10T10:56:14.578Z,90.60
2023-06-10T10:58:41.800Z,90.20
2023-06-10T11:01:15.971Z,90.40
2023-06-10T11:03:48.738Z,90.80
2023-06-10T11:06:17.146Z,90.70
2023-06-10T11:08:45.054Z,90.00
2023-06-10T11:11:25.100Z,88.80
2023-06-10T11:14:05.467Z,89.90
2023-06-10T11:16:40.997Z,89.10
2023-06-10T11:19:08.037Z,90.00
2023-06-10T11:21:59.216Z,86.90
2023-06-10T11:24:27.263Z,85.90
2023-06-10T11:26:54.264Z,86.30
2023-06-10T11:29:21.793Z,86.90
2023-06-10T11:31:52.670Z,87.00
2023-06-10T11:34:26.834Z,87.60
2023-06-10T11:36:54.202Z,89.00
2023-06-10T11:39:22.521Z,87.80
2023-06-10T11:41:50.033Z,87.60
2023-06-10T11:44:19.930Z,88.60
2023-06-10T11:46:49.653Z,87.60
2023-06-10T11:49:16.902Z,87.10
2023-06-10T11:51:50.539Z,86.00
2023-06-10T11:54:18.304Z,86.20
2023-06-10T11:56:45.641Z,86.40
2023-06-10T11:59:13.093Z,87.00
2023-06-10T12:01:47.538Z,86.10
2023-06-10T12:04:17.097Z,85.70
2023-06-10T12:06:52.351Z,85.80
2023-06-10T12:09:33.976Z,85.30
2023-06-10T12:12:03.757Z,86.40
2023-06-10T12:14:57.891Z,85.40
2023-06-10T12:17:35.118Z,85.00
2023-06-10T12:20:07.490Z,85.10
2023-06-10T12:22:38.692Z,84.50
2023-06-10T12:25:07.896Z,83.80
2023-06-10T12:27:37.770Z,84.90
2023-06-10T12:30:07.115Z,86.10
2023-06-10T12:32:42.315Z,85.80
2023-06-10T12:35:11.724Z,86.00
2023-06-10T12:37:42.569Z,85.90
2023-06-10T12:40:11.691Z,86.10
2023-06-10T12:42:39.555Z,85.60
2023-06-10T12:45:10.295Z,86.70
2023-06-10T12:47:41.413Z,85.90
2023-06-10T12:50:09.844Z,86.40
2023-06-10T12:52:36.698Z,85.70
2023-06-10T12:55:05.250Z,85.40
2023-06-10T12:57:32.626Z,85.70
2023-06-10T13:00:05.021Z,84.60
2023-06-10T13:02:32.835Z,84.80
2023-06-10T13:05:00.176Z,84.70
2023-06-10T13:07:27.633Z,85.20
2023-06-10T13:09:54.653Z,84.60
2023-06-10T13:12:30.622Z,85.10
2023-06-10T13:15:06.115Z,84.50
2023-06-10T13:17:35.179Z,83.80
2023-06-10T13:20:02.167Z,83.80
2023-06-10T13:22:29.884Z,84.30
2023-06-10T13:24:56.771Z,84.60
2023-06-10T13:27:23.605Z,84.00
2023-06-10T13:29:50.448Z,83.70
2023-06-10T13:32:17.323Z,83.60
2023-06-10T13:34:44.392Z,84.10
2023-06-10T13:37:11.430Z,84.50
2023-06-10T13:39:38.263Z,85.20
2023-06-10T13:42:05.733Z,84.20
2023-06-10T13:44:34.671Z,84.90
2023-06-10T13:47:01.598Z,84.30
2023-06-10T13:49:28.541Z,83.30
2023-06-10T13:51:55.595Z,83.20
2023-06-10T13:54:22.415Z,83.20
2023-06-10T13:56:49.338Z,83.70
2023-06-10T13:59:16.429Z,82.90
2023-06-10T14:01:43.532Z,82.10
2023-06-10T14:04:10.645Z,83.50
2023-06-10T14:06:37.718Z,82.20
2023-06-10T14:09:04.636Z,81.80
2023-06-10T14:11:34.835Z,81.70
2023-06-10T14:14:02.185Z,81.60
2023-06-10T14:16:29.144Z,81.90
2023-06-10T14:18:56.505Z,82.40
2023-06-10T14:21:23.426Z,82.30
2023-06-10T14:23:52.775Z,82.90
2023-06-10T14:26:20.093Z,82.90
2023-06-10T14:28:46.959Z,81.70
2023-06-10T14:31:13.809Z,81.70
2023-06-10T14:33:43.375Z,81.40
2023-06-10T14:36:10.879Z,82.50
2023-06-10T14:38:37.971Z,81.60
2023-06-10T14:41:04.877Z,81.70
2023-06-10T14:43:31.799Z,80.80
2023-06-10T14:45:58.926Z,80.50
2023-06-10T14:48:25.762Z,80.00
2023-06-10T14:50:52.775Z,80.10
2023-06-10T14:53:19.714Z,80.30
2023-06-10T14:55:46.731Z,79.70
2023-06-10T14:58:13.690Z,79.60
2023-06-10T15:00:40.677Z,80.40
2023-06-10T15:03:07.633Z,80.20
2023-06-10T15:05:35.794Z,79.10
2023-06-10T15:08:02.868Z,79.00
2023-06-10T15:10:29.778Z,78.70
2023-06-10T15:12:57.455Z,77.80
2023-06-10T15:15:25.011Z,77.30
2023-06-10T15:17:52.046Z,76.10
2023-06-10T15:20:19.182Z,76.10
2023-06-10T15:22:46.005Z,75.80
2023-06-10T15:27:42.613Z,77.00
2023-06-10T15:30:09.945Z,77.50
2023-06-10T15:32:36.901Z,77.40
2023-06-10T15:35:03.892Z,77.40
2023-06-10T15:37:30.986Z,78.00
2023-06-10T15:39:57.841Z,79.00
2023-06-10T15:42:24.911Z,79.30
2023-06-10T15:44:53.629Z,77.40
2023-06-10T15:47:21.760Z,77.00
2023-06-10T15:49:48.795Z,76.70
2023-06-10T15:52:15.749Z,76.80
2023-06-10T15:54:42.638Z,77.60
2023-06-10T15:57:09.616Z,77.60
2023-06-10T15:59:36.829Z,78.30
2023-06-10T16:02:04.921Z,79.10
2023-06-10T16:04:31.832Z,76.70
2023-06-10T16:06:59.031Z,76.90
2023-06-10T16:09:25.957Z,74.60
2023-06-10T16:11:52.846Z,73.70
2023-06-10T16:14:19.678Z,73.70
2023-06-10T16:16:46.639Z,73.70
2023-06-10T16:19:13.720Z,72.90
2023-06-10T16:21:41.414Z,72.10
2023-06-10T16:24:09.468Z,72.10
2023-06-10T16:26:36.483Z,72.10
2023-06-10T16:29:03.461Z,70.90
2023-06-10T16:31:30.523Z,72.00
2023-06-10T16:33:57.385Z,72.20
2023-06-10T16:36:24.305Z,72.90
2023-06-10T16:38:51.728Z,73.00
2023-06-10T16:41:18.731Z,72.50
2023-06-10T16:43:45.620Z,72.40
2023-06-10T16:46:12.530Z,72.10
2023-06-10T16:48:39.492Z,72.70
2023-06-10T16:51:06.373Z,70.20
2023-06-10T16:53:33.275Z,70.60
2023-06-10T16:56:03.200Z,71.90
2023-06-10T16:58:30.807Z,72.30
2023-06-10T17:01:05.152Z,72.80
2023-06-10T17:03:32.052Z,72.80
2023-06-10T17:05:58.990Z,72.30
2023-06-10T17:08:26.028Z,72.10
2023-06-10T17:10:52.934Z,71.40
2023-06-10T17:13:19.869Z,71.60
2023-06-10T17:15:46.880Z,72.30
2023-06-10T17:18:13.862Z,72.20
2023-06-10T17:20:40.820Z,72.40
2023-06-10T17:23:08.829Z,72.30
2023-06-10T17:25:37.667Z,72.90
2023-06-10T17:28:04.676Z,72.70
2023-06-10T17:30:31.708Z,71.60
2023-06-10T17:32:58.747Z,72.00
2023-06-10T17:35:26.064Z,71.30
2023-06-10T17:37:52.910Z,71.60
2023-06-10T17:40:19.802Z,72.20
2023-06-10T17:42:47.266Z,72.90
2023-06-10T17:45:14.361Z,72.60
2023-06-10T17:47:41.243Z,73.50
2023-06-10T17:50:08.617Z,73.80
2023-06-10T17:52:35.682Z,74.70
2023-06-10T17:55:03.664Z,75.40
2023-06-10T17:57:32.491Z,75.10
2023-06-10T17:59:59.808Z,75.20
2023-06-10T18:02:26.808Z,75.90
2023-06-10T18:04:53.673Z,76.00
2023-06-10T18:07:20.786Z,76.30
2023-06-10T18:09:47.647Z,77.00
2023-06-10T18:12:14.644Z,77.10
2023-06-10T18:14:41.465Z,77.80
2023-06-10T18:17:08.339Z,77.70
2023-06-10T18:19:35.289Z,77.90
2023-06-10T18:22:02.263Z,77.90
2023-06-10T18:24:29.107Z,78.20
2023-06-10T18:26:56.001Z,78.80
2023-06-10T18:29:22.873Z,78.80
2023-06-10T18:31:49.849Z,80.00
2023-06-10T18:34:17.045Z,79.80
2023-06-10T18:36:43.893Z,80.00
2023-06-10T18:39:10.738Z,80.40
2023-06-10T18:41:37.574Z,80.90
2023-06-10T18:47:48.578Z,81.10
2023-06-10T18:51:07.244Z,81.40
2023-06-10T18:53:46.602Z,81.50
2023-06-10T19:00:09.218Z,81.90
2023-06-10T19:09:21.283Z,82.50
2023-06-10T19:11:56.378Z,82.70
2023-06-10T19:14:41.843Z,82.70
2023-06-10T19:17:28.544Z,83.10
2023-06-10T19:20:13.510Z,83.10
2023-06-10T19:22:41.624Z,83.20
2023-06-10T19:25:09.557Z,83.60
2023-06-10T19:27:36.891Z,83.90
2023-06-10T19:30:04.953Z,83.70
2023-06-10T19:32:31.970Z,84.10
2023-06-10T19:34:58.992Z,84.20
2023-06-10T19:37:26.096Z,84.60
2023-06-10T19:39:52.973Z,84.80
2023-06-10T19:42:19.811Z,85.10
2023-06-10T19:44:46.856Z,85.10
2023-06-10T19:47:13.880Z,85.10
2023-06-10T19:49:40.898Z,85.50
2023-06-10T19:52:08.284Z,85.60
2023-06-10T19:54:36.016Z,85.90
2023-06-10T19:57:03.841Z,86.20
2023-06-10T19:59:31.317Z,86.50
2023-06-10T20:01:58.294Z,86.90
2023-06-10T20:04:25.470Z,87.30
2023-06-10T20:06:52.439Z,87.40
2023-06-10T20:09:19.378Z,87.80
2023-06-10T20:11:46.222Z,88.10
2023-06-10T20:14:14.572Z,88.40
2023-06-10T20:16:41.511Z,88.50
2023-06-10T20:19:08.525Z,88.70
2023-06-10T20:21:36.388Z,89.00
2023-06-10T20:24:08.920Z,89.30
2023-06-10T20:26:36.658Z,89.40
2023-06-10T20:29:03.749Z,89.60
2023-06-10T20:31:31.214Z,89.80
2023-06-10T20:33:58.109Z,90.00
2023-06-10T20:36:25.870Z,90.10
2023-06-10T20:38:52.803Z,90.30
2023-06-10T20:41:22.493Z,90.40
2023-06-10T20:43:49.494Z,90.50
2023-06-10T20:46:16.792Z,90.70
2023-06-10T20:48:43.741Z,90.80
2023-06-10T20:51:10.913Z,90.90
2023-06-10T20:53:37.766Z,91.00
2023-06-10T20:56:05.670Z,91.10
2023-06-10T20:58:32.850Z,91.20
2023-06-10T21:00:59.808Z,91.30
2023-06-10T21:03:26.795Z,91.40
2023-06-10T21:05:53.696Z,91.50
2023-06-10T21:08:21.002Z,91.70
2023-06-10T21:10:47.870Z,91.80
2023-06-10T21:13:14.759Z,91.90
2023-06-10T21:15:42.460Z,92.10
2023-06-10T21:18:09.442Z,92.20
2023-06-10T21:20:36.837Z,92.30
2023-06-10T21:23:03.671Z,92.40
2023-06-10T21:25:30.557Z,92.40
2023-06-10T21:27:57.488Z,92.40
2023-06-10T21:30:24.433Z,92.50
2023-06-10T21:32:51.456Z,92.60
2023-06-10T21:35:18.392Z,92.70
2023-06-10T21:37:45.393Z,93.10
2023-06-10T21:40:13.435Z,92.90
2023-06-10T21:42:40.300Z,93.00
2023-06-10T21:45:08.148Z,93.10
2023-06-10T21:47:35.404Z,93.20
2023-06-10T21:50:02.417Z,93.30
2023-06-10T21:52:29.282Z,93.40
2023-06-10T21:54:56.373Z,93.50
2023-06-10T21:57:23.848Z,93.60
2023-06-10T21:59:51.810Z,94.10
2023-06-10T22:02:19.065Z,93.90
2023-06-10T22:04:46.513Z,93.90
2023-06-10T22:07:13.504Z,93.90
2023-06-10T22:09:50.306Z,93.90
2023-06-10T22:12:17.949Z,94.10
2023-06-10T22:14:45.027Z,94.10
2023-06-10T22:17:12.801Z,94.30
2023-06-10T22:19:42.297Z,94.30
2023-06-10T22:22:09.987Z,94.30
2023-06-10T22:24:37.592Z,94.30
2023-06-10T22:27:04.754Z,94.40
2023-06-10T22:29:31.625Z,94.50
2023-06-10T22:31:58.518Z,94.60
2023-06-10T22:34:25.580Z,94.60
2023-06-10T22:36:52.552Z,94.80
2023-06-10T22:39:19.513Z,94.80
2023-06-10T22:41:46.543Z,94.80
2023-06-10T22:44:13.397Z,94.90
2023-06-10T22:46:40.330Z,94.90
2023-06-10T22:49:08.309Z,94.90
2023-06-10T22:51:35.171Z,94.90
2023-06-10T22:54:01.970Z,95.00
2023-06-10T22:56:28.922Z,95.00
2023-06-10T22:58:56.048Z,95.10
2023-06-10T23:01:22.951Z,95.20
2023-06-10T23:03:49.850Z,95.30
2023-06-10T23:06:17.023Z,95.50
2023-06-10T23:08:43.850Z,95.60
2023-06-10T23:11:10.688Z,95.70
2023-06-10T23:13:37.560Z,95.80
2023-06-10T23:16:05.333Z,96.00
2023-06-10T23:18:32.242Z,96.10
2023-06-10T23:20:59.969Z,96.20
2023-06-10T23:23:34.385Z,96.20
2023-06-10T23:26:02.336Z,96.30
2023-06-10T23:28:29.318Z,96.40
2023-06-10T23:30:57.121Z,96.50
2023-06-10T23:33:24.469Z,96.90
2023-06-10T23:35:51.411Z,96.70
2023-06-10T23:38:18.283Z,96.70
2023-06-10T23:40:45.172Z,96.80
2023-06-10T23:43:14.035Z,96.90
2023-06-10T23:45:40.943Z,97.00
2023-06-10T23:48:07.902Z,97.00
2023-06-10T23:50:39.164Z,97.10
2023-06-10T23:53:08.811Z,97.10
2023-06-10T23:55:35.938Z,97.20
2023-06-10T23:58:03.634Z,97.20
